createdAt,value
2023-04-29T00:03:18.904Z,47.40
2023-04-29T00:09:37.026Z,37.70
2023-04-29T00:15:43.331Z,30.60
2023-04-29T00:22:03.267Z,37.00
2023-04-29T00:27:29.926Z,31.80
2023-04-29T00:32:43.197Z,31.60
2023-04-29T00:38:10.480Z,35.50
2023-04-29T00:43:22.775Z,33.80
2023-04-29T00:48:34.088Z,34.00
2023-04-29T00:53:50.700Z,29.70
2023-04-29T00:59:08.743Z,28.60
2023-04-29T01:04:55.935Z,29.00
2023-04-29T01:10:26.566Z,28.50
2023-04-29T01:16:57.992Z,29.20
2023-04-29T01:22:23.721Z,28.90
2023-04-29T01:28:11.746Z,23.90
2023-04-29T01:34:22.510Z,30.00
2023-04-29T01:40:04.888Z,21.90
2023-04-29T01:45:22.268Z,27.50
2023-04-29T01:50:51.750Z,25.90
2023-04-29T01:56:09.283Z,22.10
2023-04-29T02:01:51.099Z,29.80
2023-04-29T02:07:14.508Z,25.20
2023-04-29T02:12:47.993Z,23.70
2023-04-29T02:18:05.819Z,23.10
2023-04-29T02:23:13.224Z,22.00
2023-04-29T02:28:18.039Z,26.00
2023-04-29T02:33:34.275Z,27.20
2023-04-29T02:38:49.273Z,22.50
2023-04-29T02:44:05.088Z,21.70
2023-04-29T02:49:15.867Z,21.70
2023-04-29T02:54:23.966Z,20.00
2023-04-29T02:59:37.605Z,22.80
2023-04-29T03:04:49.311Z,27.60
2023-04-29T03:09:56.910Z,20.30
2023-04-29T03:15:17.428Z,24.00
2023-04-29T03:20:25.021Z,21.70
2023-04-29T03:25:44.260Z,24.30
2023-04-29T03:30:58.283Z,27.60
2023-04-29T03:36:05.950Z,24.00
2023-04-29T03:41:14.802Z,24.00
2023-04-29T03:46:35.359Z,28.60
2023-04-29T03:51:42.287Z,27.40
2023-04-29T03:56:59.763Z,28.50
2023-04-29T04:03:09.737Z,25.30
2023-04-29T04:09:21.349Z,24.10
2023-04-29T04:14:31.908Z,20.60
2023-04-29T04:20:34.868Z,20.20
2023-04-29T04:27:14.387Z,21.80
2023-04-29T04:32:29.033Z,23.30
2023-04-29T04:37:37.427Z,23.80
2023-04-29T04:48:53.274Z,21.50
2023-04-29T04:54:16.216Z,23.00
2023-04-29T04:59:53.512Z,27.40
2023-04-29T05:05:32.363Z,21.90
2023-04-29T05:12:17.588Z,19.60
2023-04-29T05:17:59.294Z,22.90
2023-04-29T05:23:09.537Z,23.30
2023-04-29T05:28:32.930Z,21.50
2023-04-29T05:33:45.678Z,24.90
2023-04-29T05:39:02.691Z,28.10
2023-04-29T05:44:33.571Z,23.60
2023-04-29T05:49:38.802Z,24.00
2023-04-29T05:54:51.584Z,28.10
2023-04-29T06:00:08.405Z,30.10
2023-04-29T06:05:25.420Z,21.30
2023-04-29T06:11:05.228Z,25.40
2023-04-29T06:16:48.601Z,24.90
2023-04-29T06:21:50.684Z,21.10
2023-04-29T06:27:17.776Z,26.70
2023-04-29T06:32:42.225Z,21.20
2023-04-29T06:37:56.320Z,24.30
2023-04-29T06:43:10.119Z,24.90
2023-04-29T06:48:47.052Z,30.20
2023-04-29T06:54:36.170Z,27.10
2023-04-29T07:01:17.795Z,27.40
2023-04-29T07:07:12.975Z,26.40
2023-04-29T07:12:25.896Z,22.20
2023-04-29T07:17:31.975Z,23.90
2023-04-29T07:23:05.822Z,18.40
2023-04-29T07:28:39.323Z,23.60
2023-04-29T07:33:41.103Z,29.90
2023-04-29T07:39:42.153Z,28.30
2023-04-29T07:45:17.021Z,24.20
2023-04-29T07:50:40.430Z,25.00
2023-04-29T07:55:50.023Z,26.60
2023-04-29T08:01:22.247Z,21.60
2023-04-29T08:07:31.076Z,21.10
2023-04-29T08:19:36.514Z,20.00
2023-04-29T08:24:54.599Z,19.90
2023-04-29T08:29:58.989Z,19.50
2023-04-29T08:35:37.214Z,18.90
2023-04-29T08:41:06.906Z,22.30
2023-04-29T08:46:12.860Z,18.30
2023-04-29T08:51:52.962Z,20.60
2023-04-29T08:56:58.637Z,20.10
2023-04-29T09:02:22.503Z,22.10
2023-04-29T09:07:45.749Z,23.80
2023-04-29T09:13:47.265Z,20.10
2023-04-29T09:19:32.497Z,21.10
2023-04-29T09:24:43.124Z,22.20
2023-04-29T09:30:27.307Z,24.70
2023-04-29T09:35:34.650Z,22.10
2023-04-29T09:40:59.724Z,20.50
2023-04-29T09:46:38.387Z,20.90
2023-04-29T09:52:25.574Z,24.60
2023-04-29T10:04:15.308Z,22.40
2023-04-29T10:10:03.913Z,26.10
2023-04-29T10:16:12.199Z,18.90
2023-04-29T10:23:20.157Z,19.40
2023-04-29T10:29:37.750Z,22.00
2023-04-29T10:35:51.448Z,19.30
2023-04-29T10:41:16.651Z,21.90
2023-04-29T10:46:23.668Z,23.30
2023-04-29T10:51:49.080Z,21.40
2023-04-29T10:58:01.065Z,21.90
2023-04-29T11:04:05.403Z,24.00
2023-04-29T11:09:21.697Z,25.40
2023-04-29T11:15:46.851Z,24.00
2023-04-29T11:23:02.179Z,22.90
2023-04-29T11:29:58.823Z,23.70
2023-04-29T11:36:55.031Z,22.00
2023-04-29T11:43:23.128Z,18.40
2023-04-29T11:49:13.499Z,17.70
2023-04-29T11:55:28.870Z,15.60
2023-04-29T12:01:34.896Z,11.80
2023-04-29T12:08:12.625Z,11.90
2023-04-29T12:21:18.230Z,16.10
2023-04-29T12:27:49.314Z,15.80
2023-04-29T12:34:16.149Z,13.00
2023-04-29T12:40:32.564Z,16.10
2023-04-29T12:46:28.768Z,12.50
2023-04-29T12:51:44.210Z,11.10
2023-04-29T12:57:39.405Z,10.70
2023-04-29T13:03:59.017Z,8.70
2023-04-29T13:10:05.664Z,15.40
2023-04-29T13:15:59.311Z,8.70
2023-04-29T13:22:25.761Z,16.90
2023-04-29T13:28:45.378Z,12.90
2023-04-29T13:34:49.751Z,13.80
2023-04-29T13:41:11.037Z,9.60
2023-04-29T13:48:07.268Z,12.00
2023-04-29T13:54:29.341Z,14.10
2023-04-29T13:59:46.641Z,14.10
2023-04-29T14:06:16.934Z,15.10
2023-04-29T14:12:33.058Z,14.20
2023-04-29T14:18:40.985Z,17.40
2023-04-29T14:25:11.145Z,13.50
2023-04-29T14:31:31.770Z,13.30
2023-04-29T14:36:33.689Z,10.00
2023-04-29T14:41:35.530Z,12.20
2023-04-29T14:46:40.219Z,11.70
2023-04-29T14:51:55.282Z,14.90
2023-04-29T14:57:10.382Z,13.50
2023-04-29T15:03:20.210Z,12.20
2023-04-29T15:09:07.382Z,12.30
2023-04-29T15:15:15.723Z,12.80
2023-04-29T15:22:00.170Z,9.90
2023-04-29T15:28:52.720Z,14.60
2023-04-29T15:35:17.533Z,13.70
2023-04-29T15:40:39.869Z,14.00
2023-04-29T15:45:57.903Z,12.10
2023-04-29T15:51:21.197Z,12.30
2023-04-29T15:56:49.668Z,14.20
2023-04-29T16:02:02.673Z,13.90
2023-04-29T16:07:52.581Z,12.90
2023-04-29T16:12:58.312Z,14.50
2023-04-29T16:18:23.215Z,13.60
2023-04-29T16:23:59.432Z,17.00
2023-04-29T16:29:01.498Z,13.70
2023-04-29T16:35:12.762Z,12.70
2023-04-29T16:40:45.258Z,16.40
2023-04-29T16:46:10.071Z,17.20
2023-04-29T16:51:55.449Z,19.40
2023-04-29T16:58:11.617Z,20.30
2023-04-29T17:04:51.455Z,20.10
2023-04-29T17:11:18.565Z,18.20
2023-04-29T17:17:28.610Z,19.90
2023-04-29T17:24:02.115Z,22.50
2023-04-29T17:30:21.389Z,16.90
2023-04-29T17:36:07.911Z,19.80
2023-04-29T17:42:22.584Z,24.30
2023-04-29T17:47:57.616Z,24.50
2023-04-29T17:54:02.038Z,24.50
2023-04-29T18:00:41.394Z,24.60
2023-04-29T18:07:01.988Z,31.10
2023-04-29T18:13:13.672Z,22.80
2023-04-29T18:19:13.016Z,23.70
2023-04-29T18:26:03.693Z,24.00
2023-04-29T18:32:38.794Z,20.50
2023-04-29T18:39:09.540Z,25.90
2023-04-29T18:45:10.370Z,20.40
2023-04-29T18:51:54.114Z,19.00
2023-04-29T18:58:30.801Z,18.70
2023-04-29T19:12:29.244Z,18.30
2023-04-29T19:19:03.120Z,14.70
2023-04-29T19:25:42.365Z,19.60
2023-04-29T19:32:45.105Z,17.00
2023-04-29T19:39:11.025Z,14.30
2023-04-29T19:45:35.234Z,11.90
2023-04-29T19:52:28.670Z,14.90
2023-04-29T19:59:14.749Z,16.80
2023-04-29T20:05:49.515Z,13.50
2023-04-29T20:12:56.194Z,12.80
2023-04-29T20:19:34.150Z,12.30
2023-04-29T20:25:36.345Z,18.40
2023-04-29T20:32:05.026Z,16.20
2023-04-29T20:38:51.870Z,16.90
2023-04-29T20:45:34.947Z,19.10
2023-04-29T20:52:43.812Z,21.60
2023-04-29T20:58:42.099Z,22.00
2023-04-29T21:05:06.518Z,24.40
2023-04-29T21:11:17.387Z,21.50
2023-04-29T21:18:19.920Z,19.70
2023-04-29T21:24:31.995Z,19.60
2023-04-29T21:31:27.958Z,19.60
2023-04-29T21:37:23.537Z,19.20
2023-04-29T21:44:07.806Z,15.70
2023-04-29T21:51:10.705Z,19.50
2023-04-29T21:57:07.547Z,17.80
2023-04-29T22:03:36.823Z,15.50
2023-04-29T22:09:49.952Z,17.90
2023-04-29T22:15:57.454Z,14.80
2023-04-29T22:22:40.413Z,20.20
2023-04-29T22:29:26.644Z,19.20
2023-04-29T22:35:54.805Z,20.90
2023-04-29T22:42:33.295Z,24.40
2023-04-29T22:48:56.847Z,22.80
2023-04-29T22:54:48.860Z,24.10
2023-04-29T23:00:57.244Z,28.80
2023-04-29T23:12:44.474Z,28.60
2023-04-29T23:19:47.021Z,33.00
2023-04-29T23:26:36.361Z,33.80
2023-04-29T23:32:05.884Z,30.40
2023-04-29T23:44:46.290Z,34.10
2023-04-29T23:51:13.294Z,36.30
2023-04-29T23:58:22.930Z,34.20
